sensor_id;sensor_type;location;lat;lon;timestamp;pressure;altitude;pressure_sealevel;temperature
22322;BMP180;11328;53.928;18.522;2022-09-28T00:03:45;98476.00;;;14.90
22322;BMP180;11328;53.928;18.522;2022-09-28T00:06:15;98477.00;;;14.80
22322;BMP180;11328;53.928;18.522;2022-09-28T00:08:42;98474.00;;;14.80
22322;BMP180;11328;53.928;18.522;2022-09-28T00:11:13;98474.00;;;14.80
22322;BMP180;11328;53.928;18.522;2022-09-28T00:13:42;98479.00;;;14.80
22322;BMP180;11328;53.928;18.522;2022-09-28T00:16:15;98481.00;;;14.90
22322;BMP180;11328;53.928;18.522;2022-09-28T00:18:43;98457.00;;;14.90
22322;BMP180;11328;53.928;18.522;2022-09-28T00:21:27;98463.00;;;14.90
22322;BMP180;11328;53.928;18.522;2022-09-28T00:23:56;98473.00;;;14.90
22322;BMP180;11328;53.928;18.522;2022-09-28T00:26:48;98469.00;;;14.80
22322;BMP180;11328;53.928;18.522;2022-09-28T00:29:26;98466.00;;;14.70
22322;BMP180;11328;53.928;18.522;2022-09-28T00:31:57;98462.00;;;14.70
22322;BMP180;11328;53.928;18.522;2022-09-28T00:34:27;98469.00;;;14.80
22322;BMP180;11328;53.928;18.522;2022-09-28T00:36:59;98463.00;;;14.80
22322;BMP180;11328;53.928;18.522;2022-09-28T00:39:26;98461.00;;;14.80
22322;BMP180;11328;53.928;18.522;2022-09-28T00:41:53;98455.00;;;14.80
22322;BMP180;11328;53.928;18.522;2022-09-28T00:47:59;98468.00;;;14.80
22322;BMP180;11328;53.928;18.522;2022-09-28T00:50:28;98455.00;;;14.80
22322;BMP180;11328;53.928;18.522;2022-09-28T00:53:13;98454.00;;;14.90
22322;BMP180;11328;53.928;18.522;2022-09-28T00:55:49;98450.00;;;14.80
22322;BMP180;11328;53.928;18.522;2022-09-28T00:58:26;98455.00;;;14.70
22322;BMP180;11328;53.928;18.522;2022-09-28T01:00:57;98447.00;;;14.80
22322;BMP180;11328;53.928;18.522;2022-09-28T01:03:27;98448.00;;;14.80
22322;BMP180;11328;53.928;18.522;2022-09-28T01:05:58;98446.00;;;14.80
22322;BMP180;11328;53.928;18.522;2022-09-28T01:08:27;98448.00;;;14.80
22322;BMP180;11328;53.928;18.522;2022-09-28T01:10:56;98447.00;;;14.80
22322;BMP180;11328;53.928;18.522;2022-09-28T01:13:25;98447.00;;;14.70
22322;BMP180;11328;53.928;18.522;2022-09-28T01:21:49;98438.00;;;14.60
22322;BMP180;11328;53.928;18.522;2022-09-28T01:24:45;98443.00;;;14.60
22322;BMP180;11328;53.928;18.522;2022-09-28T01:27:21;98446.00;;;14.50
22322;BMP180;11328;53.928;18.522;2022-09-28T01:30:08;98444.00;;;14.50
22322;BMP180;11328;53.928;18.522;2022-09-28T01:33:02;98437.00;;;14.50
22322;BMP180;11328;53.928;18.522;2022-09-28T01:35:40;98438.00;;;14.50
22322;BMP180;11328;53.928;18.522;2022-09-28T01:38:21;98436.00;;;14.40
22322;BMP180;11328;53.928;18.522;2022-09-28T01:40:50;98435.00;;;14.40
22322;BMP180;11328;53.928;18.522;2022-09-28T01:43:25;98415.00;;;14.50
22322;BMP180;11328;53.928;18.522;2022-09-28T01:46:01;98429.00;;;14.50
22322;BMP180;11328;53.928;18.522;2022-09-28T01:51:24;98428.00;;;14.60
22322;BMP180;11328;53.928;18.522;2022-09-28T01:54:00;98431.00;;;14.50
22322;BMP180;11328;53.928;18.522;2022-09-28T01:56:55;98430.00;;;14.60
22322;BMP180;11328;53.928;18.522;2022-09-28T01:59:28;98422.00;;;14.70
22322;BMP180;11328;53.928;18.522;2022-09-28T02:02:12;98424.00;;;14.70
22322;BMP180;11328;53.928;18.522;2022-09-28T02:07:23;98417.00;;;14.80
22322;BMP180;11328;53.928;18.522;2022-09-28T02:09:59;98417.00;;;14.80
22322;BMP180;11328;53.928;18.522;2022-09-28T02:12:37;98418.00;;;14.80
22322;BMP180;11328;53.928;18.522;2022-09-28T02:15:57;98419.00;;;14.80
22322;BMP180;11328;53.928;18.522;2022-09-28T02:18:20;98401.00;;;14.80
22322;BMP180;11328;53.928;18.522;2022-09-28T02:20:59;98424.00;;;14.90
22322;BMP180;11328;53.928;18.522;2022-09-28T02:23:29;98413.00;;;14.80
22322;BMP180;11328;53.928;18.522;2022-09-28T02:26:08;98417.00;;;14.90
22322;BMP180;11328;53.928;18.522;2022-09-28T02:28:36;98413.00;;;14.80
22322;BMP180;11328;53.928;18.522;2022-09-28T02:31:03;98408.00;;;14.80
22322;BMP180;11328;53.928;18.522;2022-09-28T02:33:36;98398.00;;;14.80
22322;BMP180;11328;53.928;18.522;2022-09-28T02:36:04;98406.00;;;14.80
22322;BMP180;11328;53.928;18.522;2022-09-28T02:38:31;98405.00;;;14.70
22322;BMP180;11328;53.928;18.522;2022-09-28T02:41:12;98400.00;;;14.70
22322;BMP180;11328;53.928;18.522;2022-09-28T02:44:14;98403.00;;;14.70
22322;BMP180;11328;53.928;18.522;2022-09-28T02:47:02;98402.00;;;14.60
22322;BMP180;11328;53.928;18.522;2022-09-28T02:49:45;98405.00;;;14.60
22322;BMP180;11328;53.928;18.522;2022-09-28T02:52:44;98392.00;;;14.60
22322;BMP180;11328;53.928;18.522;2022-09-28T03:02:50;98397.00;;;14.60
22322;BMP180;11328;53.928;18.522;2022-09-28T03:05:15;98389.00;;;14.60
22322;BMP180;11328;53.928;18.522;2022-09-28T03:08:37;98398.00;;;14.60
22322;BMP180;11328;53.928;18.522;2022-09-28T03:11:21;98394.00;;;14.60
22322;BMP180;11328;53.928;18.522;2022-09-28T03:13:54;98394.00;;;14.60
22322;BMP180;11328;53.928;18.522;2022-09-28T03:16:44;98396.00;;;14.70
22322;BMP180;11328;53.928;18.522;2022-09-28T03:19:38;98401.00;;;14.70
22322;BMP180;11328;53.928;18.522;2022-09-28T03:22:12;98389.00;;;14.70
22322;BMP180;11328;53.928;18.522;2022-09-28T03:24:44;98394.00;;;14.70
22322;BMP180;11328;53.928;18.522;2022-09-28T03:27:22;98384.00;;;14.60
22322;BMP180;11328;53.928;18.522;2022-09-28T03:30:00;98395.00;;;14.60
22322;BMP180;11328;53.928;18.522;2022-09-28T03:32:35;98396.00;;;14.70
22322;BMP180;11328;53.928;18.522;2022-09-28T03:35:10;98390.00;;;14.70
22322;BMP180;11328;53.928;18.522;2022-09-28T03:38:00;98398.00;;;14.70
22322;BMP180;11328;53.928;18.522;2022-09-28T03:40:30;98391.00;;;14.70
22322;BMP180;11328;53.928;18.522;2022-09-28T03:43:02;98379.00;;;14.60
22322;BMP180;11328;53.928;18.522;2022-09-28T03:45:33;98380.00;;;14.50
22322;BMP180;11328;53.928;18.522;2022-09-28T03:48:16;98383.00;;;14.50
22322;BMP180;11328;53.928;18.522;2022-09-28T03:51:05;98386.00;;;14.40
22322;BMP180;11328;53.928;18.522;2022-09-28T03:53:40;98387.00;;;14.20
22322;BMP180;11328;53.928;18.522;2022-09-28T03:56:17;98382.00;;;14.10
22322;BMP180;11328;53.928;18.522;2022-09-28T03:59:08;98382.00;;;13.80
22322;BMP180;11328;53.928;18.522;2022-09-28T04:01:47;98379.00;;;13.80
22322;BMP180;11328;53.928;18.522;2022-09-28T04:04:30;98378.00;;;13.80
22322;BMP180;11328;53.928;18.522;2022-09-28T04:07:12;98380.00;;;13.70
22322;BMP180;11328;53.928;18.522;2022-09-28T04:09:51;98374.00;;;13.80
22322;BMP180;11328;53.928;18.522;2022-09-28T04:12:22;98377.00;;;13.80
22322;BMP180;11328;53.928;18.522;2022-09-28T04:15:09;98357.00;;;13.70
22322;BMP180;11328;53.928;18.522;2022-09-28T04:17:55;98374.00;;;13.70
22322;BMP180;11328;53.928;18.522;2022-09-28T04:20:38;98368.00;;;13.60
22322;BMP180;11328;53.928;18.522;2022-09-28T04:23:22;98371.00;;;13.50
22322;BMP180;11328;53.928;18.522;2022-09-28T04:26:01;98373.00;;;13.60
22322;BMP180;11328;53.928;18.522;2022-09-28T04:28:36;98373.00;;;13.60
22322;BMP180;11328;53.928;18.522;2022-09-28T04:31:48;98372.00;;;13.60
22322;BMP180;11328;53.928;18.522;2022-09-28T04:34:24;98370.00;;;13.60
22322;BMP180;11328;53.928;18.522;2022-09-28T04:37:08;98369.00;;;13.60
22322;BMP180;11328;53.928;18.522;2022-09-28T04:39:43;98379.00;;;13.50
22322;BMP180;11328;53.928;18.522;2022-09-28T04:42:16;98371.00;;;13.50
22322;BMP180;11328;53.928;18.522;2022-09-28T04:44:59;98372.00;;;13.30
22322;BMP180;11328;53.928;18.522;2022-09-28T04:47:41;98371.00;;;13.20
22322;BMP180;11328;53.928;18.522;2022-09-28T04:50:19;98367.00;;;13.10
22322;BMP180;11328;53.928;18.522;2022-09-28T04:52:48;98365.00;;;13.10
22322;BMP180;11328;53.928;18.522;2022-09-28T04:55:29;98363.00;;;13.20
22322;BMP180;11328;53.928;18.522;2022-09-28T04:58:06;98362.00;;;13.30
22322;BMP180;11328;53.928;18.522;2022-09-28T05:00:35;98370.00;;;13.30
22322;BMP180;11328;53.928;18.522;2022-09-28T05:03:09;98374.00;;;13.30
22322;BMP180;11328;53.928;18.522;2022-09-28T05:05:49;98371.00;;;13.30
22322;BMP180;11328;53.928;18.522;2022-09-28T05:08:36;98366.00;;;13.30
22322;BMP180;11328;53.928;18.522;2022-09-28T05:11:11;98365.00;;;13.30
22322;BMP180;11328;53.928;18.522;2022-09-28T05:13:51;98359.00;;;13.30
22322;BMP180;11328;53.928;18.522;2022-09-28T05:16:27;98364.00;;;13.40
22322;BMP180;11328;53.928;18.522;2022-09-28T05:19:02;98366.00;;;13.30
22322;BMP180;11328;53.928;18.522;2022-09-28T05:21:34;98366.00;;;13.30
22322;BMP180;11328;53.928;18.522;2022-09-28T05:24:04;98370.00;;;13.20
22322;BMP180;11328;53.928;18.522;2022-09-28T05:26:53;98364.00;;;13.10
22322;BMP180;11328;53.928;18.522;2022-09-28T05:29:24;98361.00;;;13.10
22322;BMP180;11328;53.928;18.522;2022-09-28T05:32:09;98364.00;;;13.10
22322;BMP180;11328;53.928;18.522;2022-09-28T05:34:39;98362.00;;;13.20
22322;BMP180;11328;53.928;18.522;2022-09-28T05:37:06;98363.00;;;13.10
22322;BMP180;11328;53.928;18.522;2022-09-28T05:39:51;98354.00;;;13.20
22322;BMP180;11328;53.928;18.522;2022-09-28T05:42:18;98365.00;;;13.10
22322;BMP180;11328;53.928;18.522;2022-09-28T05:44:47;98362.00;;;13.00
22322;BMP180;11328;53.928;18.522;2022-09-28T05:47:14;98353.00;;;13.20
22322;BMP180;11328;53.928;18.522;2022-09-28T05:49:42;98365.00;;;13.10
22322;BMP180;11328;53.928;18.522;2022-09-28T05:52:09;98357.00;;;13.10
22322;BMP180;11328;53.928;18.522;2022-09-28T05:54:38;98361.00;;;13.20
22322;BMP180;11328;53.928;18.522;2022-09-28T05:57:08;98350.00;;;13.20
22322;BMP180;11328;53.928;18.522;2022-09-28T05:59:38;98356.00;;;13.20
22322;BMP180;11328;53.928;18.522;2022-09-28T06:02:08;98357.00;;;13.10
22322;BMP180;11328;53.928;18.522;2022-09-28T06:04:41;98350.00;;;13.10
22322;BMP180;11328;53.928;18.522;2022-09-28T06:07:11;98354.00;;;13.10
22322;BMP180;11328;53.928;18.522;2022-09-28T06:09:38;98354.00;;;13.10
22322;BMP180;11328;53.928;18.522;2022-09-28T06:12:08;98356.00;;;13.20
22322;BMP180;11328;53.928;18.522;2022-09-28T06:14:37;98360.00;;;13.20
22322;BMP180;11328;53.928;18.522;2022-09-28T06:17:04;98363.00;;;13.00
22322;BMP180;11328;53.928;18.522;2022-09-28T06:19:34;98354.00;;;12.90
22322;BMP180;11328;53.928;18.522;2022-09-28T06:22:01;98344.00;;;13.00
22322;BMP180;11328;53.928;18.522;2022-09-28T06:24:28;98359.00;;;13.10
22322;BMP180;11328;53.928;18.522;2022-09-28T06:26:55;98366.00;;;13.20
22322;BMP180;11328;53.928;18.522;2022-09-28T06:29:22;98353.00;;;13.20
22322;BMP180;11328;53.928;18.522;2022-09-28T06:31:49;98353.00;;;13.10
22322;BMP180;11328;53.928;18.522;2022-09-28T06:34:20;98351.00;;;13.00
22322;BMP180;11328;53.928;18.522;2022-09-28T06:36:47;98348.00;;;13.00
22322;BMP180;11328;53.928;18.522;2022-09-28T06:39:14;98348.00;;;13.00
22322;BMP180;11328;53.928;18.522;2022-09-28T06:41:42;98351.00;;;13.10
22322;BMP180;11328;53.928;18.522;2022-09-28T06:44:15;98342.00;;;13.00
22322;BMP180;11328;53.928;18.522;2022-09-28T06:46:42;98347.00;;;12.90
22322;BMP180;11328;53.928;18.522;2022-09-28T06:49:09;98344.00;;;13.00
22322;BMP180;11328;53.928;18.522;2022-09-28T07:04:00;98349.00;;;13.40
22322;BMP180;11328;53.928;18.522;2022-09-28T07:06:27;98353.00;;;13.40
22322;BMP180;11328;53.928;18.522;2022-09-28T07:08:57;98349.00;;;13.20
22322;BMP180;11328;53.928;18.522;2022-09-28T07:11:48;98361.00;;;13.20
22322;BMP180;11328;53.928;18.522;2022-09-28T07:14:15;98358.00;;;13.10
22322;BMP180;11328;53.928;18.522;2022-09-28T07:17:02;98369.00;;;13.00
22322;BMP180;11328;53.928;18.522;2022-09-28T07:19:39;98365.00;;;12.90
22322;BMP180;11328;53.928;18.522;2022-09-28T07:22:06;98362.00;;;12.90
22322;BMP180;11328;53.928;18.522;2022-09-28T07:24:36;98372.00;;;13.00
22322;BMP180;11328;53.928;18.522;2022-09-28T07:27:03;98367.00;;;13.00
22322;BMP180;11328;53.928;18.522;2022-09-28T07:29:31;98366.00;;;13.10
22322;BMP180;11328;53.928;18.522;2022-09-28T07:31:58;98372.00;;;13.00
22322;BMP180;11328;53.928;18.522;2022-09-28T07:34:25;98364.00;;;13.00
22322;BMP180;11328;53.928;18.522;2022-09-28T07:36:55;98370.00;;;13.00
22322;BMP180;11328;53.928;18.522;2022-09-28T07:39:24;98360.00;;;13.10
22322;BMP180;11328;53.928;18.522;2022-09-28T07:41:51;98366.00;;;13.20
22322;BMP180;11328;53.928;18.522;2022-09-28T07:44:28;98367.00;;;13.20
22322;BMP180;11328;53.928;18.522;2022-09-28T07:46:55;98366.00;;;13.20
22322;BMP180;11328;53.928;18.522;2022-09-28T07:49:22;98358.00;;;13.00
22322;BMP180;11328;53.928;18.522;2022-09-28T07:51:49;98361.00;;;12.80
22322;BMP180;11328;53.928;18.522;2022-09-28T07:54:16;98356.00;;;12.70
22322;BMP180;11328;53.928;18.522;2022-09-28T07:56:44;98365.00;;;12.60
22322;BMP180;11328;53.928;18.522;2022-09-28T07:59:11;98368.00;;;12.70
22322;BMP180;11328;53.928;18.522;2022-09-28T08:01:43;98365.00;;;12.80
22322;BMP180;11328;53.928;18.522;2022-09-28T08:04:10;98374.00;;;12.80
22322;BMP180;11328;53.928;18.522;2022-09-28T08:06:37;98372.00;;;12.90
22322;BMP180;11328;53.928;18.522;2022-09-28T08:09:06;98370.00;;;12.90
22322;BMP180;11328;53.928;18.522;2022-09-28T08:11:33;98368.00;;;12.80
22322;BMP180;11328;53.928;18.522;2022-09-28T08:13:59;98366.00;;;12.80
22322;BMP180;11328;53.928;18.522;2022-09-28T08:16:27;98373.00;;;12.90
22322;BMP180;11328;53.928;18.522;2022-09-28T08:18:55;98380.00;;;13.10
22322;BMP180;11328;53.928;18.522;2022-09-28T08:21:23;98385.00;;;13.10
22322;BMP180;11328;53.928;18.522;2022-09-28T08:24:08;98389.00;;;13.00
22322;BMP180;11328;53.928;18.522;2022-09-28T08:26:35;98382.00;;;12.90
22322;BMP180;11328;53.928;18.522;2022-09-28T08:29:02;98358.00;;;13.00
22322;BMP180;11328;53.928;18.522;2022-09-28T08:31:32;98371.00;;;13.30
22322;BMP180;11328;53.928;18.522;2022-09-28T08:33:59;98397.00;;;13.30
22322;BMP180;11328;53.928;18.522;2022-09-28T08:36:26;98390.00;;;13.30
22322;BMP180;11328;53.928;18.522;2022-09-28T08:38:54;98390.00;;;13.00
22322;BMP180;11328;53.928;18.522;2022-09-28T08:41:35;98390.00;;;13.00
22322;BMP180;11328;53.928;18.522;2022-09-28T08:44:17;98388.00;;;13.00
22322;BMP180;11328;53.928;18.522;2022-09-28T08:47:04;98398.00;;;13.10
22322;BMP180;11328;53.928;18.522;2022-09-28T08:49:40;98402.00;;;13.20
22322;BMP180;11328;53.928;18.522;2022-09-28T08:52:13;98393.00;;;13.10
22322;BMP180;11328;53.928;18.522;2022-09-28T08:54:50;98397.00;;;13.00
22322;BMP180;11328;53.928;18.522;2022-09-28T08:57:43;98386.00;;;13.10
22322;BMP180;11328;53.928;18.522;2022-09-28T09:00:37;98379.00;;;13.20
22322;BMP180;11328;53.928;18.522;2022-09-28T09:03:09;98395.00;;;13.30
22322;BMP180;11328;53.928;18.522;2022-09-28T09:06:08;98386.00;;;13.20
22322;BMP180;11328;53.928;18.522;2022-09-28T09:17:40;98382.00;;;13.00
22322;BMP180;11328;53.928;18.522;2022-09-28T09:20:24;98386.00;;;13.00
22322;BMP180;11328;53.928;18.522;2022-09-28T09:22:59;98387.00;;;13.10
22322;BMP180;11328;53.928;18.522;2022-09-28T09:31:06;98384.00;;;13.20
22322;BMP180;11328;53.928;18.522;2022-09-28T09:36:49;98395.00;;;13.50
22322;BMP180;11328;53.928;18.522;2022-09-28T09:42:51;98389.00;;;13.70
22322;BMP180;11328;53.928;18.522;2022-09-28T09:45:44;98379.00;;;14.10
22322;BMP180;11328;53.928;18.522;2022-09-28T09:48:27;98379.00;;;14.50
22322;BMP180;11328;53.928;18.522;2022-09-28T09:51:15;98372.00;;;14.60
22322;BMP180;11328;53.928;18.522;2022-09-28T09:54:00;98380.00;;;14.60
22322;BMP180;11328;53.928;18.522;2022-09-28T09:56:40;98395.00;;;14.80
22322;BMP180;11328;53.928;18.522;2022-09-28T09:59:43;98377.00;;;14.90
22322;BMP180;11328;53.928;18.522;2022-09-28T10:02:31;98387.00;;;15.20
22322;BMP180;11328;53.928;18.522;2022-09-28T10:05:19;98402.00;;;15.50
22322;BMP180;11328;53.928;18.522;2022-09-28T10:13:47;98382.00;;;15.20
22322;BMP180;11328;53.928;18.522;2022-09-28T10:16:18;98399.00;;;15.70
22322;BMP180;11328;53.928;18.522;2022-09-28T10:18:46;98424.00;;;16.00
22322;BMP180;11328;53.928;18.522;2022-09-28T10:21:19;98411.00;;;15.70
22322;BMP180;11328;53.928;18.522;2022-09-28T10:23:54;98420.00;;;15.60
22322;BMP180;11328;53.928;18.522;2022-09-28T10:26:38;98415.00;;;15.50
22322;BMP180;11328;53.928;18.522;2022-09-28T10:29:21;98419.00;;;15.40
22322;BMP180;11328;53.928;18.522;2022-09-28T10:31:53;98415.00;;;15.30
22322;BMP180;11328;53.928;18.522;2022-09-28T10:34:29;98422.00;;;15.30
22322;BMP180;11328;53.928;18.522;2022-09-28T10:37:09;98428.00;;;15.70
22322;BMP180;11328;53.928;18.522;2022-09-28T10:39:54;98425.00;;;15.50
22322;BMP180;11328;53.928;18.522;2022-09-28T10:42:27;98428.00;;;15.20
22322;BMP180;11328;53.928;18.522;2022-09-28T10:45:05;98430.00;;;15.40
22322;BMP180;11328;53.928;18.522;2022-09-28T10:47:43;98435.00;;;15.60
22322;BMP180;11328;53.928;18.522;2022-09-28T10:50:25;98431.00;;;15.50
22322;BMP180;11328;53.928;18.522;2022-09-28T10:52:53;98427.00;;;15.20
22322;BMP180;11328;53.928;18.522;2022-09-28T10:55:35;98421.00;;;15.00
22322;BMP180;11328;53.928;18.522;2022-09-28T10:58:39;98408.00;;;14.90
22322;BMP180;11328;53.928;18.522;2022-09-28T11:01:18;98423.00;;;14.90
22322;BMP180;11328;53.928;18.522;2022-09-28T11:03:57;98424.00;;;15.10
22322;BMP180;11328;53.928;18.522;2022-09-28T11:06:34;98416.00;;;15.50
22322;BMP180;11328;53.928;18.522;2022-09-28T11:09:16;98431.00;;;15.70
22322;BMP180;11328;53.928;18.522;2022-09-28T11:11:46;98433.00;;;15.90
22322;BMP180;11328;53.928;18.522;2022-09-28T11:14:34;98434.00;;;15.80
22322;BMP180;11328;53.928;18.522;2022-09-28T11:17:46;98426.00;;;15.80
22322;BMP180;11328;53.928;18.522;2022-09-28T11:22:59;98434.00;;;16.00
22322;BMP180;11328;53.928;18.522;2022-09-28T11:25:29;98438.00;;;16.30
22322;BMP180;11328;53.928;18.522;2022-09-28T11:28:00;98428.00;;;16.50
22322;BMP180;11328;53.928;18.522;2022-09-28T11:30:43;98425.00;;;16.30
22322;BMP180;11328;53.928;18.522;2022-09-28T11:33:17;98418.00;;;16.00
22322;BMP180;11328;53.928;18.522;2022-09-28T11:39:03;98424.00;;;15.70
22322;BMP180;11328;53.928;18.522;2022-09-28T11:56:27;98415.00;;;15.90
22322;BMP180;11328;53.928;18.522;2022-09-28T11:59:04;98406.00;;;15.90
22322;BMP180;11328;53.928;18.522;2022-09-28T12:01:42;98426.00;;;16.20
22322;BMP180;11328;53.928;18.522;2022-09-28T12:04:37;98426.00;;;16.30
22322;BMP180;11328;53.928;18.522;2022-09-28T12:07:15;98423.00;;;16.60
22322;BMP180;11328;53.928;18.522;2022-09-28T12:10:13;98422.00;;;16.80
22322;BMP180;11328;53.928;18.522;2022-09-28T12:12:59;98418.00;;;16.90
22322;BMP180;11328;53.928;18.522;2022-09-28T12:15:44;98415.00;;;16.90
22322;BMP180;11328;53.928;18.522;2022-09-28T12:18:52;98403.00;;;16.70
22322;BMP180;11328;53.928;18.522;2022-09-28T12:21:39;98412.00;;;16.80
22322;BMP180;11328;53.928;18.522;2022-09-28T12:24:14;98420.00;;;16.70
22322;BMP180;11328;53.928;18.522;2022-09-28T12:27:36;98397.00;;;16.70
22322;BMP180;11328;53.928;18.522;2022-09-28T12:30:14;98406.00;;;16.80
22322;BMP180;11328;53.928;18.522;2022-09-28T12:35:14;98423.00;;;16.90
22322;BMP180;11328;53.928;18.522;2022-09-28T12:38:28;98410.00;;;16.70
22322;BMP180;11328;53.928;18.522;2022-09-28T12:47:22;98415.00;;;17.30
22322;BMP180;11328;53.928;18.522;2022-09-28T13:00:19;98425.00;;;16.80
22322;BMP180;11328;53.928;18.522;2022-09-28T13:11:39;98426.00;;;17.30
22322;BMP180;11328;53.928;18.522;2022-09-28T13:20:13;98425.00;;;16.80
22322;BMP180;11328;53.928;18.522;2022-09-28T13:25:46;98442.00;;;16.90
22322;BMP180;11328;53.928;18.522;2022-09-28T13:28:18;98440.00;;;17.00
22322;BMP180;11328;53.928;18.522;2022-09-28T13:30:55;98437.00;;;17.10
22322;BMP180;11328;53.928;18.522;2022-09-28T13:33:35;98423.00;;;17.00
22322;BMP180;11328;53.928;18.522;2022-09-28T13:38:52;98446.00;;;16.90
22322;BMP180;11328;53.928;18.522;2022-09-28T13:41:34;98446.00;;;16.70
22322;BMP180;11328;53.928;18.522;2022-09-28T13:44:37;98449.00;;;16.50
22322;BMP180;11328;53.928;18.522;2022-09-28T14:02:03;98457.00;;;16.30
22322;BMP180;11328;53.928;18.522;2022-09-28T14:16:25;98459.00;;;16.60
22322;BMP180;11328;53.928;18.522;2022-09-28T14:30:55;98456.00;;;16.70
22322;BMP180;11328;53.928;18.522;2022-09-28T14:33:29;98465.00;;;16.70
22322;BMP180;11328;53.928;18.522;2022-09-28T14:36:05;98435.00;;;16.80
22322;BMP180;11328;53.928;18.522;2022-09-28T14:38:48;98468.00;;;16.60
22322;BMP180;11328;53.928;18.522;2022-09-28T14:41:37;98477.00;;;16.50
22322;BMP180;11328;53.928;18.522;2022-09-28T14:44:09;98472.00;;;16.60
22322;BMP180;11328;53.928;18.522;2022-09-28T14:54:31;98480.00;;;16.60
22322;BMP180;11328;53.928;18.522;2022-09-28T14:59:41;98463.00;;;16.80
22322;BMP180;11328;53.928;18.522;2022-09-28T15:02:26;98481.00;;;16.80
22322;BMP180;11328;53.928;18.522;2022-09-28T15:05:13;98478.00;;;16.70
22322;BMP180;11328;53.928;18.522;2022-09-28T15:07:51;98472.00;;;16.80
22322;BMP180;11328;53.928;18.522;2022-09-28T15:10:35;98413.00;;;16.90
22322;BMP180;11328;53.928;18.522;2022-09-28T15:15:46;98471.00;;;16.80
22322;BMP180;11328;53.928;18.522;2022-09-28T15:21:10;98478.00;;;16.60
22322;BMP180;11328;53.928;18.522;2022-09-28T15:23:42;98475.00;;;16.60
22322;BMP180;11328;53.928;18.522;2022-09-28T15:26:30;98482.00;;;16.60
22322;BMP180;11328;53.928;18.522;2022-09-28T15:28:59;98477.00;;;16.50
22322;BMP180;11328;53.928;18.522;2022-09-28T15:31:34;98477.00;;;16.50
22322;BMP180;11328;53.928;18.522;2022-09-28T15:34:01;98490.00;;;16.60
22322;BMP180;11328;53.928;18.522;2022-09-28T15:36:47;98477.00;;;16.70
22322;BMP180;11328;53.928;18.522;2022-09-28T15:39:29;98488.00;;;16.60
22322;BMP180;11328;53.928;18.522;2022-09-28T15:41:57;98488.00;;;16.60
22322;BMP180;11328;53.928;18.522;2022-09-28T15:44:33;98480.00;;;16.60
22322;BMP180;11328;53.928;18.522;2022-09-28T15:47:26;98497.00;;;16.60
22322;BMP180;11328;53.928;18.522;2022-09-28T15:49:59;98491.00;;;16.70
22322;BMP180;11328;53.928;18.522;2022-09-28T15:52:58;98496.00;;;16.70
22322;BMP180;11328;53.928;18.522;2022-09-28T15:55:41;98499.00;;;16.70
22322;BMP180;11328;53.928;18.522;2022-09-28T15:58:21;98493.00;;;16.70
22322;BMP180;11328;53.928;18.522;2022-09-28T16:01:14;98501.00;;;16.60
22322;BMP180;11328;53.928;18.522;2022-09-28T16:03:37;98505.00;;;16.60
22322;BMP180;11328;53.928;18.522;2022-09-28T16:06:08;98503.00;;;16.60
22322;BMP180;11328;53.928;18.522;2022-09-28T16:08:36;98509.00;;;16.60
22322;BMP180;11328;53.928;18.522;2022-09-28T16:14:06;98506.00;;;16.50
22322;BMP180;11328;53.928;18.522;2022-09-28T16:16:47;98509.00;;;16.40
22322;BMP180;11328;53.928;18.522;2022-09-28T16:19:27;98515.00;;;16.40
22322;BMP180;11328;53.928;18.522;2022-09-28T16:22:01;98515.00;;;16.40
22322;BMP180;11328;53.928;18.522;2022-09-28T16:24:36;98518.00;;;16.30
22322;BMP180;11328;53.928;18.522;2022-09-28T16:27:31;98518.00;;;16.10
22322;BMP180;11328;53.928;18.522;2022-09-28T16:30:27;98527.00;;;16.20
22322;BMP180;11328;53.928;18.522;2022-09-28T16:33:03;98517.00;;;16.20
22322;BMP180;11328;53.928;18.522;2022-09-28T16:40:48;98513.00;;;16.30
22322;BMP180;11328;53.928;18.522;2022-09-28T16:43:31;98521.00;;;16.30
22322;BMP180;11328;53.928;18.522;2022-09-28T16:46:10;98498.00;;;16.30
22322;BMP180;11328;53.928;18.522;2022-09-28T16:48:47;98520.00;;;16.30
22322;BMP180;11328;53.928;18.522;2022-09-28T16:51:20;98525.00;;;16.20
22322;BMP180;11328;53.928;18.522;2022-09-28T16:53:47;98520.00;;;16.20
22322;BMP180;11328;53.928;18.522;2022-09-28T16:56:35;98521.00;;;16.10
22322;BMP180;11328;53.928;18.522;2022-09-28T16:59:02;98525.00;;;16.10
22322;BMP180;11328;53.928;18.522;2022-09-28T17:01:30;98519.00;;;16.00
22322;BMP180;11328;53.928;18.522;2022-09-28T17:03:57;98524.00;;;16.00
22322;BMP180;11328;53.928;18.522;2022-09-28T17:06:25;98514.00;;;15.90
22322;BMP180;11328;53.928;18.522;2022-09-28T17:08:53;98519.00;;;15.90
22322;BMP180;11328;53.928;18.522;2022-09-28T17:11:25;98514.00;;;15.80
22322;BMP180;11328;53.928;18.522;2022-09-28T17:13:52;98512.00;;;15.70
22322;BMP180;11328;53.928;18.522;2022-09-28T17:16:28;98516.00;;;15.60
22322;BMP180;11328;53.928;18.522;2022-09-28T17:19:22;98511.00;;;15.60
22322;BMP180;11328;53.928;18.522;2022-09-28T17:21:51;98516.00;;;15.50
22322;BMP180;11328;53.928;18.522;2022-09-28T17:24:18;98509.00;;;15.40
22322;BMP180;11328;53.928;18.522;2022-09-28T17:26:50;98512.00;;;15.40
22322;BMP180;11328;53.928;18.522;2022-09-28T17:29:18;98503.00;;;15.30
22322;BMP180;11328;53.928;18.522;2022-09-28T17:31:46;98514.00;;;15.10
22322;BMP180;11328;53.928;18.522;2022-09-28T17:34:15;98520.00;;;15.10
22322;BMP180;11328;53.928;18.522;2022-09-28T17:36:43;98523.00;;;15.00
22322;BMP180;11328;53.928;18.522;2022-09-28T17:39:18;98512.00;;;14.90
22322;BMP180;11328;53.928;18.522;2022-09-28T17:41:45;98519.00;;;14.90
22322;BMP180;11328;53.928;18.522;2022-09-28T17:44:12;98525.00;;;14.80
22322;BMP180;11328;53.928;18.522;2022-09-28T17:46:44;98525.00;;;14.80
22322;BMP180;11328;53.928;18.522;2022-09-28T17:49:15;98537.00;;;14.60
22322;BMP180;11328;53.928;18.522;2022-09-28T17:51:42;98528.00;;;14.60
22322;BMP180;11328;53.928;18.522;2022-09-28T17:54:09;98519.00;;;14.60
22322;BMP180;11328;53.928;18.522;2022-09-28T17:56:38;98528.00;;;14.50